createdAt,value
2022-09-25T00:01:59.655Z,25.98
2022-09-25T00:04:26.241Z,26.30
2022-09-25T00:06:52.755Z,26.73
2022-09-25T00:09:21.503Z,24.45
2022-09-25T00:11:48.249Z,25.40
2022-09-25T00:14:14.835Z,26.05
2022-09-25T00:16:41.458Z,27.60
2022-09-25T00:19:37.582Z,26.38
2022-09-25T00:24:31.956Z,24.48
2022-09-25T00:26:59.943Z,24.58
2022-09-25T00:29:26.456Z,23.75
2022-09-25T00:31:55.039Z,23.95
2022-09-25T00:34:21.530Z,24.80
2022-09-25T00:36:48.015Z,24.80
2022-09-25T00:39:14.573Z,25.10
2022-09-25T00:41:41.186Z,22.42
2022-09-25T00:44:45.912Z,23.45
2022-09-25T00:47:17.768Z,20.38
2022-09-25T00:49:45.097Z,22.30
2022-09-25T00:52:13.568Z,21.67
2022-09-25T00:54:49.649Z,20.42
2022-09-25T00:57:20.413Z,22.13
2022-09-25T00:59:52.232Z,22.25
2022-09-25T01:02:30.954Z,20.23
2022-09-25T01:05:05.241Z,22.55
2022-09-25T01:07:38.980Z,21.83
2022-09-25T01:10:07.941Z,20.38
2022-09-25T01:12:40.609Z,19.85
2022-09-25T01:15:10.101Z,20.65
2022-09-25T01:18:03.163Z,24.40
2022-09-25T01:20:48.539Z,21.70
2022-09-25T01:23:45.892Z,21.80
2022-09-25T01:26:25.937Z,23.55
2022-09-25T01:29:12.670Z,22.20
2022-09-25T01:31:50.796Z,24.35
2022-09-25T01:34:28.349Z,21.95
2022-09-25T01:37:02.695Z,21.85
2022-09-25T01:39:35.293Z,25.17
2022-09-25T01:42:25.621Z,26.33
2022-09-25T01:45:04.753Z,24.83
2022-09-25T01:47:37.691Z,25.42
2022-09-25T01:50:09.788Z,25.60
2022-09-25T01:52:43.830Z,22.17
2022-09-25T01:55:21.069Z,24.77
2022-09-25T01:57:56.936Z,25.40
2022-09-25T02:00:25.062Z,25.20
2022-09-25T02:03:00.826Z,24.98
2022-09-25T02:05:36.021Z,24.73
2022-09-25T02:08:07.266Z,22.70
2022-09-25T02:10:51.126Z,24.58
2022-09-25T02:13:20.609Z,26.05
2022-09-25T02:15:55.106Z,29.13
2022-09-25T02:18:41.331Z,26.02
2022-09-25T02:21:19.650Z,24.83
2022-09-25T02:24:07.390Z,29.95
2022-09-25T02:26:34.965Z,32.17
2022-09-25T02:29:02.357Z,28.75
2022-09-25T02:31:40.378Z,28.10
2022-09-25T02:34:13.710Z,30.27
2022-09-25T02:36:42.853Z,31.57
2022-09-25T02:39:09.869Z,31.52
2022-09-25T02:42:18.325Z,30.80
2022-09-25T02:45:06.906Z,33.38
2022-09-25T02:48:07.333Z,28.23
2022-09-25T02:50:45.663Z,30.75
2022-09-25T02:53:15.575Z,27.30
2022-09-25T02:56:23.927Z,26.33
2022-09-25T02:58:53.967Z,30.85
2022-09-25T03:01:24.468Z,27.13
2022-09-25T03:03:55.193Z,30.42
2022-09-25T03:06:22.413Z,30.88
2022-09-25T03:08:54.102Z,27.48
2022-09-25T03:11:21.639Z,29.80
2022-09-25T03:14:03.325Z,30.75
2022-09-25T03:16:49.976Z,29.58
2022-09-25T03:19:19.545Z,29.15
2022-09-25T03:21:47.254Z,29.67
2022-09-25T03:24:17.635Z,30.02
2022-09-25T03:26:44.476Z,28.45
2022-09-25T03:29:12.837Z,31.40
2022-09-25T03:31:40.398Z,27.77
2022-09-25T03:34:06.991Z,30.00
2022-09-25T03:36:34.816Z,29.17
2022-09-25T03:39:01.658Z,33.67
2022-09-25T03:41:30.912Z,31.85
2022-09-25T03:43:58.390Z,32.40
2022-09-25T03:46:27.170Z,31.65
2022-09-25T03:48:54.767Z,29.70
2022-09-25T03:51:22.652Z,34.47
2022-09-25T03:53:50.433Z,31.40
2022-09-25T03:56:23.696Z,33.85
2022-09-25T03:58:51.974Z,29.92
2022-09-25T04:01:21.740Z,33.90
2022-09-25T04:03:49.151Z,30.27
2022-09-25T04:06:18.218Z,34.10
2022-09-25T04:08:46.048Z,29.58
2022-09-25T04:11:13.075Z,27.52
2022-09-25T04:13:41.942Z,29.27
2022-09-25T04:16:08.630Z,28.80
2022-09-25T04:18:35.632Z,30.02
2022-09-25T04:21:04.669Z,31.35
2022-09-25T04:23:32.378Z,29.63
2022-09-25T04:25:58.917Z,30.42
2022-09-25T04:28:26.100Z,28.58
2022-09-25T04:30:52.934Z,31.10
2022-09-25T04:33:38.645Z,32.72
2022-09-25T04:36:05.633Z,30.15
2022-09-25T04:38:32.443Z,27.20
2022-09-25T04:41:00.053Z,26.67
2022-09-25T04:43:29.415Z,26.88
2022-09-25T04:45:59.953Z,27.80
2022-09-25T04:48:26.463Z,25.50
2022-09-25T04:50:52.956Z,24.90
2022-09-25T04:53:19.497Z,25.13
2022-09-25T04:55:47.182Z,26.52
2022-09-25T04:58:13.722Z,26.80
2022-09-25T05:00:40.867Z,25.83
2022-09-25T05:03:07.642Z,24.42
2022-09-25T05:05:35.153Z,25.58
2022-09-25T05:08:02.626Z,24.45
2022-09-25T05:10:31.694Z,30.20
2022-09-25T05:13:00.356Z,25.27
2022-09-25T05:15:28.843Z,25.50
2022-09-25T05:18:03.967Z,28.20
2022-09-25T05:20:30.975Z,27.52
2022-09-25T05:22:58.684Z,28.67
2022-09-25T05:25:26.347Z,26.25
2022-09-25T05:27:55.675Z,27.98
2022-09-25T05:30:22.995Z,27.05
2022-09-25T05:32:51.224Z,29.15
2022-09-25T05:35:23.345Z,28.08
2022-09-25T05:37:50.535Z,24.45
2022-09-25T05:40:20.851Z,25.02
2022-09-25T05:42:48.406Z,26.60
2022-09-25T05:45:16.310Z,24.38
2022-09-25T05:47:43.474Z,25.75
2022-09-25T05:50:12.330Z,25.13
2022-09-25T05:52:39.053Z,24.25
2022-09-25T05:55:06.552Z,24.50
2022-09-25T05:57:35.195Z,26.08
2022-09-25T06:00:09.190Z,26.38
2022-09-25T06:02:35.857Z,24.23
2022-09-25T06:05:02.490Z,25.60
2022-09-25T06:07:29.078Z,24.67
2022-09-25T06:09:55.997Z,26.65
2022-09-25T06:12:24.715Z,26.08
2022-09-25T06:14:52.327Z,23.05
2022-09-25T06:17:19.422Z,24.98
2022-09-25T06:19:46.310Z,24.73
2022-09-25T06:22:12.970Z,22.15
2022-09-25T06:24:39.728Z,21.92
2022-09-25T06:27:06.810Z,22.45
2022-09-25T06:29:33.353Z,19.92
2022-09-25T06:31:59.967Z,20.48
2022-09-25T06:34:28.023Z,19.88
2022-09-25T06:36:54.558Z,21.23
2022-09-25T06:39:21.153Z,19.77
2022-09-25T06:41:47.791Z,20.73
2022-09-25T06:44:14.361Z,20.90
2022-09-25T06:46:44.975Z,20.02
2022-09-25T06:49:13.139Z,18.10
2022-09-25T06:51:40.054Z,20.33
2022-09-25T06:54:06.923Z,19.10
2022-09-25T06:56:33.506Z,20.50
2022-09-25T06:59:00.235Z,19.17
2022-09-25T07:01:26.795Z,19.10
2022-09-25T07:03:53.370Z,18.60
2022-09-25T07:06:22.691Z,18.38
2022-09-25T07:08:50.827Z,22.42
2022-09-25T07:11:20.012Z,20.05
2022-09-25T07:13:47.445Z,18.83
2022-09-25T07:16:17.020Z,19.85
2022-09-25T07:18:44.775Z,19.30
2022-09-25T07:21:13.917Z,20.27
2022-09-25T07:23:41.923Z,19.67
2022-09-25T07:26:11.373Z,20.45
2022-09-25T07:28:39.690Z,18.83
2022-09-25T07:31:18.124Z,21.17
2022-09-25T07:33:45.378Z,20.30
2022-09-25T07:36:12.331Z,21.17
2022-09-25T07:38:39.482Z,21.50
2022-09-25T07:41:07.998Z,20.50
2022-09-25T07:43:34.928Z,21.02
2022-09-25T07:46:01.669Z,21.17
2022-09-25T07:48:30.594Z,21.17
2022-09-25T07:51:01.458Z,21.60
2022-09-25T07:53:28.258Z,20.65
2022-09-25T07:56:05.071Z,20.98
2022-09-25T07:58:33.009Z,21.55
2022-09-25T08:01:01.479Z,20.88
2022-09-25T08:03:31.494Z,21.10
2022-09-25T08:06:18.394Z,21.15
2022-09-25T08:08:44.912Z,21.02
2022-09-25T08:11:14.004Z,21.23
2022-09-25T08:13:41.636Z,18.85
2022-09-25T08:16:13.509Z,18.85
2022-09-25T08:18:41.685Z,19.83
2022-09-25T08:21:09.670Z,18.52
2022-09-25T08:23:36.310Z,19.73
2022-09-25T08:26:02.941Z,20.42
2022-09-25T08:28:29.828Z,18.73
2022-09-25T08:30:59.243Z,21.05
2022-09-25T08:33:26.079Z,18.10
2022-09-25T08:35:57.245Z,21.02
2022-09-25T08:38:26.974Z,20.90
2022-09-25T08:40:59.111Z,20.13
2022-09-25T08:43:27.221Z,18.27
2022-09-25T08:46:15.447Z,19.70
2022-09-25T08:49:02.506Z,20.00
2022-09-25T08:51:35.144Z,20.20
2022-09-25T08:54:03.302Z,19.38
2022-09-25T08:56:32.485Z,20.17
2022-09-25T08:59:26.070Z,20.20
2022-09-25T09:02:19.455Z,21.30
2022-09-25T09:04:53.205Z,21.55
2022-09-25T09:07:34.755Z,17.02
2022-09-25T09:10:20.430Z,18.52
2022-09-25T09:15:41.005Z,16.60
2022-09-25T09:18:26.633Z,16.35
2022-09-25T09:23:23.816Z,16.13
2022-09-25T09:25:59.494Z,15.43
2022-09-25T09:28:56.449Z,14.52
2022-09-25T09:31:36.236Z,12.32
2022-09-25T09:34:02.795Z,12.05
2022-09-25T09:36:56.475Z,13.27
2022-09-25T09:39:42.228Z,12.60
2022-09-25T09:42:20.785Z,13.85
2022-09-25T09:45:01.581Z,14.48
2022-09-25T09:47:53.295Z,12.95
2022-09-25T09:50:48.469Z,11.75
2022-09-25T09:53:37.244Z,12.07
2022-09-25T09:56:18.373Z,14.77
2022-09-25T09:59:02.682Z,14.00
2022-09-25T10:01:42.199Z,13.88
2022-09-25T10:04:18.942Z,15.00
2022-09-25T10:06:50.957Z,16.45
2022-09-25T10:09:18.026Z,16.55
2022-09-25T10:11:47.298Z,18.33
2022-09-25T10:14:21.101Z,16.98
2022-09-25T10:16:53.235Z,17.02
2022-09-25T10:19:24.195Z,15.55
2022-09-25T10:22:05.178Z,16.95
2022-09-25T10:24:52.429Z,17.48
2022-09-25T10:27:40.394Z,16.98
2022-09-25T10:30:10.132Z,17.30
2022-09-25T10:33:15.228Z,17.85
2022-09-25T10:35:45.919Z,18.77
2022-09-25T10:38:32.119Z,18.23
2022-09-25T10:41:08.818Z,17.92
2022-09-25T10:43:35.530Z,17.67
2022-09-25T10:46:08.331Z,18.95
2022-09-25T10:48:55.640Z,18.42
2022-09-25T10:51:22.440Z,16.02
2022-09-25T10:54:08.354Z,16.85
2022-09-25T10:56:37.963Z,17.98
2022-09-25T10:59:17.031Z,17.70
2022-09-25T11:01:44.549Z,16.17
2022-09-25T11:04:22.892Z,17.23
2022-09-25T11:06:52.822Z,14.88
2022-09-25T11:09:22.661Z,15.70
2022-09-25T11:11:52.201Z,15.40
2022-09-25T11:14:32.757Z,15.40
2022-09-25T11:17:01.758Z,14.75
2022-09-25T11:19:36.896Z,13.63
2022-09-25T11:22:10.172Z,13.57
2022-09-25T11:25:13.387Z,14.38
2022-09-25T11:27:58.879Z,14.48
2022-09-25T11:30:32.256Z,12.80
2022-09-25T11:33:24.620Z,13.65
2022-09-25T11:36:08.810Z,11.18
2022-09-25T11:38:59.827Z,10.85
2022-09-25T11:41:47.863Z,10.68
2022-09-25T11:44:28.427Z,10.05
2022-09-25T11:47:12.734Z,9.45
2022-09-25T11:49:41.592Z,9.07
2022-09-25T11:52:25.346Z,8.32
2022-09-25T11:55:16.011Z,8.30
2022-09-25T11:58:09.592Z,9.23
2022-09-25T12:01:01.084Z,8.75
2022-09-25T12:04:13.245Z,8.80
2022-09-25T12:07:04.078Z,8.75
2022-09-25T12:09:49.846Z,9.05
2022-09-25T12:12:24.786Z,7.88
2022-09-25T12:15:09.015Z,6.97
2022-09-25T12:17:53.375Z,7.03
2022-09-25T12:20:42.273Z,6.93
2022-09-25T12:23:31.847Z,7.50
2022-09-25T12:26:11.152Z,7.53
2022-09-25T12:29:00.704Z,6.93
2022-09-25T12:31:59.901Z,7.07
2022-09-25T12:34:44.175Z,6.32
2022-09-25T12:37:33.766Z,6.30
2022-09-25T12:40:04.417Z,6.13
2022-09-25T12:42:50.395Z,6.22
2022-09-25T12:45:25.026Z,6.57
2022-09-25T12:48:03.243Z,6.30
2022-09-25T12:50:37.198Z,5.15
2022-09-25T12:53:22.684Z,5.20
2022-09-25T12:56:18.768Z,5.60
2022-09-25T12:59:11.056Z,5.20
2022-09-25T13:01:46.110Z,4.15
2022-09-25T13:04:40.930Z,3.90
2022-09-25T13:07:30.413Z,4.25
2022-09-25T13:09:57.011Z,4.60
2022-09-25T13:12:40.046Z,4.22
2022-09-25T13:15:18.299Z,5.28
2022-09-25T13:17:44.959Z,5.00
2022-09-25T13:20:26.905Z,4.40
2022-09-25T13:22:59.211Z,4.15
2022-09-25T13:25:26.363Z,4.30
2022-09-25T13:27:54.075Z,4.07
2022-09-25T13:30:28.647Z,3.67
2022-09-25T13:33:02.787Z,3.53
2022-09-25T13:35:31.917Z,3.38
2022-09-25T13:38:49.635Z,3.47
2022-09-25T13:41:16.571Z,3.92
2022-09-25T13:43:43.159Z,3.60
2022-09-25T13:46:23.238Z,3.08
2022-09-25T13:48:55.295Z,3.10
2022-09-25T13:51:21.750Z,3.53
2022-09-25T13:54:25.042Z,2.83
2022-09-25T13:56:54.297Z,3.05
2022-09-25T13:59:24.354Z,2.70
2022-09-25T14:01:55.453Z,3.00
2022-09-25T14:04:35.924Z,2.83
2022-09-25T14:07:29.660Z,2.85
2022-09-25T14:09:58.860Z,3.22
2022-09-25T14:12:43.266Z,3.38
2022-09-25T14:15:29.250Z,2.90
2022-09-25T14:17:59.253Z,2.33
2022-09-25T14:20:42.301Z,2.90
2022-09-25T14:23:12.073Z,2.63
2022-09-25T14:25:42.573Z,3.00
2022-09-25T14:28:23.087Z,3.60
2022-09-25T14:31:04.484Z,3.60
2022-09-25T14:33:49.097Z,4.25
2022-09-25T14:36:24.412Z,3.97
2022-09-25T14:39:03.075Z,4.07
2022-09-25T14:42:18.615Z,4.07
2022-09-25T14:45:04.906Z,3.95
2022-09-25T14:47:37.181Z,4.28
2022-09-25T14:50:05.473Z,4.13
2022-09-25T14:52:35.955Z,3.90
2022-09-25T14:55:03.980Z,4.15
2022-09-25T14:57:37.084Z,3.90
2022-09-25T15:00:07.304Z,4.60
2022-09-25T15:02:43.792Z,4.15
2022-09-25T15:05:31.231Z,4.00
2022-09-25T15:07:59.729Z,4.00
2022-09-25T15:10:33.946Z,4.10
2022-09-25T15:13:15.972Z,4.05
2022-09-25T15:16:15.825Z,3.58
2022-09-25T15:18:53.942Z,4.30
2022-09-25T15:21:20.658Z,3.65
2022-09-25T15:23:47.417Z,3.17
2022-09-25T15:26:18.391Z,3.45
2022-09-25T15:28:45.742Z,3.10
2022-09-25T15:31:12.399Z,3.15
2022-09-25T15:33:39.966Z,3.30
2022-09-25T15:36:22.564Z,3.08
2022-09-25T15:39:03.018Z,3.03
2022-09-25T15:41:29.767Z,3.08
2022-09-25T15:44:26.162Z,2.70
2022-09-25T15:47:01.905Z,2.75
2022-09-25T15:49:34.540Z,2.60
2022-09-25T15:52:16.145Z,2.60
2022-09-25T15:54:44.952Z,2.58
2022-09-25T15:57:15.178Z,2.72
2022-09-25T16:00:04.954Z,3.08
2022-09-25T16:02:54.125Z,2.90
2022-09-25T16:05:28.598Z,2.70
2022-09-25T16:08:24.052Z,2.63
2022-09-25T16:11:04.601Z,2.72
2022-09-25T16:13:32.738Z,2.85
2022-09-25T16:15:59.652Z,6.90
2022-09-25T16:18:39.452Z,3.25
2022-09-25T16:21:24.078Z,2.42
2022-09-25T16:23:59.675Z,2.50
2022-09-25T16:26:41.445Z,2.97
2022-09-25T16:29:22.266Z,3.10
2022-09-25T16:31:53.228Z,2.97
2022-09-25T16:34:27.923Z,3.53
2022-09-25T16:36:58.065Z,3.55
2022-09-25T16:39:31.177Z,3.28
2022-09-25T16:42:00.042Z,4.75
2022-09-25T16:44:32.749Z,3.08
2022-09-25T16:47:00.126Z,3.33
2022-09-25T16:49:26.659Z,2.90
2022-09-25T16:51:55.142Z,2.63
2022-09-25T16:54:31.605Z,2.70
2022-09-25T16:56:59.240Z,2.65
2022-09-25T16:59:28.100Z,2.85
2022-09-25T17:01:58.718Z,2.55
2022-09-25T17:04:27.888Z,2.63
2022-09-25T17:06:56.844Z,2.67
2022-09-25T17:09:26.628Z,2.67
2022-09-25T17:11:59.337Z,3.28
2022-09-25T17:14:28.731Z,3.00
2022-09-25T17:16:56.524Z,3.22
2022-09-25T17:19:23.725Z,3.22
2022-09-25T17:21:52.950Z,3.03
2022-09-25T17:24:22.359Z,3.70
2022-09-25T17:26:50.254Z,3.13
2022-09-25T17:29:16.991Z,3.75
2022-09-25T17:31:43.694Z,3.15
2022-09-25T17:34:16.401Z,3.78
2022-09-25T17:36:43.153Z,3.58
2022-09-25T17:39:10.058Z,4.18
2022-09-25T17:41:37.312Z,4.40
2022-09-25T17:44:05.018Z,3.75
2022-09-25T17:46:36.341Z,3.40
2022-09-25T17:49:03.849Z,3.13
2022-09-25T17:51:31.018Z,3.22
2022-09-25T17:53:59.322Z,2.47
2022-09-25T17:56:29.593Z,3.47
2022-09-25T17:58:57.311Z,3.75
2022-09-25T18:01:27.009Z,4.22
2022-09-25T18:03:56.058Z,4.22
2022-09-25T18:06:24.371Z,4.10
2022-09-25T18:08:53.407Z,3.78
2022-09-25T18:11:20.662Z,4.07
2022-09-25T18:13:47.783Z,3.53
2022-09-25T18:16:18.940Z,4.05
2022-09-25T18:19:04.754Z,3.70
2022-09-25T18:21:50.064Z,3.60
2022-09-25T18:24:17.486Z,3.63
2022-09-25T18:26:45.023Z,4.38
2022-09-25T18:29:19.473Z,3.80
2022-09-25T18:31:47.208Z,8.60
2022-09-25T18:34:15.155Z,9.95
2022-09-25T18:36:42.328Z,7.32
2022-09-25T18:39:08.910Z,6.20
2022-09-25T18:41:39.491Z,6.35
2022-09-25T18:44:07.230Z,5.95
2022-09-25T18:46:35.825Z,4.70
2022-09-25T18:49:02.971Z,4.43
2022-09-25T18:51:29.511Z,4.10
2022-09-25T18:53:56.134Z,4.10
2022-09-25T18:56:22.856Z,3.55
2022-09-25T18:58:51.635Z,4.80
2022-09-25T19:01:18.558Z,5.22
2022-09-25T19:03:50.377Z,5.85
2022-09-25T19:06:16.896Z,6.38
2022-09-25T19:08:44.738Z,5.35
2022-09-25T19:11:15.293Z,5.20
2022-09-25T19:13:42.159Z,4.55
2022-09-25T19:16:09.563Z,4.07
2022-09-25T19:18:36.622Z,3.78
2022-09-25T19:21:03.814Z,4.07
2022-09-25T19:23:34.005Z,3.92
2022-09-25T19:26:03.481Z,4.05
2022-09-25T19:28:32.063Z,3.88
2022-09-25T19:31:06.816Z,3.78
2022-09-25T19:33:35.846Z,3.60
2022-09-25T19:36:08.318Z,3.90
2022-09-25T19:38:40.036Z,4.40
2022-09-25T19:41:18.822Z,3.83
2022-09-25T19:43:45.653Z,4.13
2022-09-25T19:46:18.122Z,5.25
2022-09-25T19:48:46.056Z,4.85
2022-09-25T19:51:13.146Z,4.13
2022-09-25T19:53:41.356Z,4.20
2022-09-25T19:56:09.542Z,3.92
2022-09-25T19:58:38.206Z,4.20
2022-09-25T20:01:16.168Z,4.18
2022-09-25T20:03:42.821Z,4.72
2022-09-25T20:06:10.965Z,4.50
2022-09-25T20:08:38.408Z,4.43
2022-09-25T20:11:22.618Z,4.53
2022-09-25T20:13:50.898Z,4.70
2022-09-25T20:16:20.997Z,4.90
2022-09-25T20:18:50.031Z,5.28
2022-09-25T20:21:21.003Z,5.20
2022-09-25T20:23:52.586Z,5.53
2022-09-25T20:26:20.031Z,5.45
2022-09-25T20:28:50.522Z,5.40
2022-09-25T20:31:17.234Z,5.03
2022-09-25T20:33:43.910Z,4.72
2022-09-25T20:36:12.962Z,5.03
2022-09-25T20:38:39.761Z,5.50
2022-09-25T20:41:09.100Z,5.80
2022-09-25T20:43:35.700Z,5.00
2022-09-25T20:46:07.308Z,5.07
2022-09-25T20:48:36.142Z,5.53
2022-09-25T20:51:04.162Z,5.90
2022-09-25T20:53:30.807Z,6.10
2022-09-25T20:56:04.790Z,5.80
2022-09-25T20:58:31.333Z,5.35
2022-09-25T21:01:06.489Z,4.80
2022-09-25T21:06:09.772Z,5.10
2022-09-25T21:08:36.671Z,5.10
2022-09-25T21:11:03.302Z,4.82
2022-09-25T21:13:34.978Z,4.72
2022-09-25T21:16:09.441Z,4.47
2022-09-25T21:18:36.615Z,4.32
2022-09-25T21:21:07.719Z,4.22
2022-09-25T21:23:34.376Z,4.25
2022-09-25T21:26:13.612Z,3.70
2022-09-25T21:28:42.453Z,4.60
2022-09-25T21:31:14.924Z,4.60
2022-09-25T21:33:41.597Z,4.03
2022-09-25T21:36:13.655Z,3.80
2022-09-25T21:38:40.611Z,4.43
2022-09-25T21:41:11.443Z,4.00
2022-09-25T21:43:38.681Z,3.78
2022-09-25T21:46:09.099Z,4.50
2022-09-25T21:48:37.207Z,4.10
2022-09-25T21:51:05.716Z,3.83
2022-09-25T21:53:33.785Z,4.72
2022-09-25T21:56:06.722Z,4.38
2022-09-25T21:58:34.189Z,4.43
2022-09-25T22:01:16.124Z,4.10
2022-09-25T22:03:48.027Z,4.18
2022-09-25T22:06:17.367Z,4.43
2022-09-25T22:08:47.365Z,4.30
2022-09-25T22:11:14.225Z,4.68
2022-09-25T22:13:42.866Z,5.20
2022-09-25T22:16:12.441Z,4.95
2022-09-25T22:18:57.461Z,5.22
2022-09-25T22:21:26.579Z,4.97
2022-09-25T22:23:53.201Z,5.82
2022-09-25T22:26:20.829Z,5.97
2022-09-25T22:28:47.903Z,6.38
2022-09-25T22:31:22.786Z,5.22
2022-09-25T22:33:54.103Z,5.20
2022-09-25T22:36:21.043Z,5.88
2022-09-25T22:38:47.548Z,5.72
2022-09-25T22:41:14.983Z,6.13
2022-09-25T22:43:41.963Z,6.03
2022-09-25T22:46:10.905Z,6.10
2022-09-25T22:48:38.102Z,5.57
2022-09-25T22:51:13.807Z,5.70
2022-09-25T22:53:40.715Z,6.25
2022-09-25T22:56:21.704Z,6.35
2022-09-25T22:58:50.981Z,6.03
2022-09-25T23:01:22.897Z,6.03
2022-09-25T23:03:53.814Z,5.68
2022-09-25T23:06:20.621Z,6.40
2022-09-25T23:08:58.671Z,5.90
2022-09-25T23:11:25.725Z,6.55
2022-09-25T23:14:01.218Z,6.15
2022-09-25T23:16:28.572Z,5.78
2022-09-25T23:18:59.002Z,5.88
2022-09-25T23:21:27.291Z,6.03
2022-09-25T23:24:01.311Z,6.35
2022-09-25T23:26:28.655Z,6.35
2022-09-25T23:28:55.194Z,5.60
2022-09-25T23:31:21.947Z,6.30
2022-09-25T23:33:48.554Z,6.45
2022-09-25T23:36:20.714Z,6.72
2022-09-25T23:38:48.115Z,6.25
2022-09-25T23:41:26.433Z,6.13
2022-09-25T23:43:54.451Z,5.50
2022-09-25T23:46:23.599Z,6.32
2022-09-25T23:48:51.231Z,6.75
2022-09-25T23:51:18.652Z,6.60
2022-09-25T23:53:46.371Z,6.75
2022-09-25T23:56:15.892Z,6.90
2022-09-25T23:58:43.230Z,7.47
